sensor_id;sensor_type;location;lat;lon;timestamp;P1;durP1;ratioP1;P2;durP2;ratioP2
36799;SDS011;22752;51.960;5.886;2023-04-15T00:01:59;10.13;;;4.63;;
36799;SDS011;22752;51.960;5.886;2023-04-15T00:04:24;8.20;;;4.20;;
36799;SDS011;22752;51.960;5.886;2023-04-15T00:06:51;8.43;;;4.83;;
36799;SDS011;22752;51.960;5.886;2023-04-15T00:09:17;9.90;;;4.70;;
36799;SDS011;22752;51.960;5.886;2023-04-15T00:11:44;7.60;;;4.63;;
36799;SDS011;22752;51.960;5.886;2023-04-15T00:14:10;8.97;;;4.50;;
36799;SDS011;22752;51.960;5.886;2023-04-15T00:16:36;9.43;;;5.10;;
36799;SDS011;22752;51.960;5.886;2023-04-15T00:19:02;8.90;;;4.90;;
36799;SDS011;22752;51.960;5.886;2023-04-15T00:21:28;8.70;;;5.20;;
36799;SDS011;22752;51.960;5.886;2023-04-15T00:23:53;9.07;;;5.13;;
36799;SDS011;22752;51.960;5.886;2023-04-15T00:26:19;8.67;;;5.30;;
36799;SDS011;22752;51.960;5.886;2023-04-15T00:28:45;10.60;;;5.30;;
36799;SDS011;22752;51.960;5.886;2023-04-15T00:31:11;10.57;;;4.73;;
36799;SDS011;22752;51.960;5.886;2023-04-15T00:33:36;10.37;;;4.70;;
36799;SDS011;22752;51.960;5.886;2023-04-15T00:36:02;11.53;;;5.43;;
36799;SDS011;22752;51.960;5.886;2023-04-15T00:38:29;10.40;;;4.73;;
36799;SDS011;22752;51.960;5.886;2023-04-15T00:40:55;13.40;;;5.00;;
36799;SDS011;22752;51.960;5.886;2023-04-15T00:43:21;10.33;;;5.37;;
36799;SDS011;22752;51.960;5.886;2023-04-15T00:45:46;8.50;;;5.13;;
36799;SDS011;22752;51.960;5.886;2023-04-15T00:48:12;8.13;;;5.10;;
36799;SDS011;22752;51.960;5.886;2023-04-15T00:50:38;9.33;;;4.90;;
36799;SDS011;22752;51.960;5.886;2023-04-15T00:53:03;8.17;;;4.83;;
36799;SDS011;22752;51.960;5.886;2023-04-15T00:55:29;12.93;;;5.30;;
36799;SDS011;22752;51.960;5.886;2023-04-15T00:57:55;7.83;;;4.73;;
36799;SDS011;22752;51.960;5.886;2023-04-15T01:00:21;7.73;;;4.77;;
36799;SDS011;22752;51.960;5.886;2023-04-15T01:02:48;10.63;;;5.40;;
36799;SDS011;22752;51.960;5.886;2023-04-15T01:05:13;10.90;;;5.43;;
36799;SDS011;22752;51.960;5.886;2023-04-15T01:07:42;14.20;;;5.20;;
36799;SDS011;22752;51.960;5.886;2023-04-15T01:10:08;8.50;;;5.07;;
36799;SDS011;22752;51.960;5.886;2023-04-15T01:12:34;9.70;;;5.10;;
36799;SDS011;22752;51.960;5.886;2023-04-15T01:15:01;9.87;;;5.30;;
36799;SDS011;22752;51.960;5.886;2023-04-15T01:17:28;8.67;;;4.87;;
36799;SDS011;22752;51.960;5.886;2023-04-15T01:19:54;6.80;;;5.00;;
36799;SDS011;22752;51.960;5.886;2023-04-15T01:22:22;11.47;;;5.27;;
36799;SDS011;22752;51.960;5.886;2023-04-15T01:24:53;8.97;;;5.40;;
36799;SDS011;22752;51.960;5.886;2023-04-15T01:27:25;12.63;;;5.57;;
36799;SDS011;22752;51.960;5.886;2023-04-15T01:29:52;8.23;;;5.30;;
36799;SDS011;22752;51.960;5.886;2023-04-15T01:32:17;11.33;;;5.60;;
36799;SDS011;22752;51.960;5.886;2023-04-15T01:34:44;8.50;;;5.73;;
36799;SDS011;22752;51.960;5.886;2023-04-15T01:37:09;9.90;;;5.90;;
36799;SDS011;22752;51.960;5.886;2023-04-15T01:39:35;10.80;;;5.77;;
36799;SDS011;22752;51.960;5.886;2023-04-15T01:42:01;10.40;;;5.47;;
36799;SDS011;22752;51.960;5.886;2023-04-15T01:44:28;11.00;;;5.90;;
36799;SDS011;22752;51.960;5.886;2023-04-15T01:46:53;8.73;;;5.80;;
36799;SDS011;22752;51.960;5.886;2023-04-15T01:49:19;11.23;;;5.57;;
36799;SDS011;22752;51.960;5.886;2023-04-15T01:51:45;10.73;;;5.87;;
36799;SDS011;22752;51.960;5.886;2023-04-15T01:54:10;7.93;;;6.00;;
36799;SDS011;22752;51.960;5.886;2023-04-15T01:56:36;10.93;;;5.73;;
36799;SDS011;22752;51.960;5.886;2023-04-15T01:59:02;7.67;;;5.30;;
36799;SDS011;22752;51.960;5.886;2023-04-15T02:01:28;8.97;;;5.90;;
36799;SDS011;22752;51.960;5.886;2023-04-15T02:03:54;12.17;;;5.60;;
36799;SDS011;22752;51.960;5.886;2023-04-15T02:06:19;9.10;;;5.80;;
36799;SDS011;22752;51.960;5.886;2023-04-15T02:08:45;9.03;;;5.63;;
36799;SDS011;22752;51.960;5.886;2023-04-15T02:11:10;7.27;;;5.57;;
36799;SDS011;22752;51.960;5.886;2023-04-15T02:13:36;7.50;;;4.90;;
36799;SDS011;22752;51.960;5.886;2023-04-15T02:16:02;8.30;;;4.97;;
36799;SDS011;22752;51.960;5.886;2023-04-15T02:18:28;9.90;;;6.13;;
36799;SDS011;22752;51.960;5.886;2023-04-15T02:20:53;10.83;;;6.03;;
36799;SDS011;22752;51.960;5.886;2023-04-15T02:23:21;10.87;;;6.00;;
36799;SDS011;22752;51.960;5.886;2023-04-15T02:25:46;10.30;;;5.90;;
36799;SDS011;22752;51.960;5.886;2023-04-15T02:28:12;7.90;;;5.60;;
36799;SDS011;22752;51.960;5.886;2023-04-15T02:30:38;8.13;;;5.83;;
36799;SDS011;22752;51.960;5.886;2023-04-15T02:33:05;9.30;;;6.07;;
36799;SDS011;22752;51.960;5.886;2023-04-15T02:35:31;10.90;;;5.93;;
36799;SDS011;22752;51.960;5.886;2023-04-15T02:37:57;11.23;;;6.40;;
36799;SDS011;22752;51.960;5.886;2023-04-15T02:40:23;8.80;;;6.33;;
36799;SDS011;22752;51.960;5.886;2023-04-15T02:42:48;10.03;;;6.73;;
36799;SDS011;22752;51.960;5.886;2023-04-15T02:45:14;9.10;;;6.97;;
36799;SDS011;22752;51.960;5.886;2023-04-15T02:47:40;11.27;;;6.10;;
36799;SDS011;22752;51.960;5.886;2023-04-15T02:50:07;8.70;;;5.90;;
36799;SDS011;22752;51.960;5.886;2023-04-15T02:52:33;8.47;;;6.30;;
36799;SDS011;22752;51.960;5.886;2023-04-15T02:54:59;9.70;;;6.50;;
36799;SDS011;22752;51.960;5.886;2023-04-15T02:57:26;9.80;;;6.97;;
36799;SDS011;22752;51.960;5.886;2023-04-15T02:59:53;11.30;;;6.40;;
36799;SDS011;22752;51.960;5.886;2023-04-15T03:02:19;12.07;;;7.00;;
36799;SDS011;22752;51.960;5.886;2023-04-15T03:04:45;10.60;;;6.33;;
36799;SDS011;22752;51.960;5.886;2023-04-15T03:07:10;9.80;;;7.00;;
36799;SDS011;22752;51.960;5.886;2023-04-15T03:09:36;10.23;;;6.83;;
36799;SDS011;22752;51.960;5.886;2023-04-15T03:12:04;9.80;;;6.83;;
36799;SDS011;22752;51.960;5.886;2023-04-15T03:14:30;11.80;;;7.47;;
36799;SDS011;22752;51.960;5.886;2023-04-15T03:16:55;10.60;;;7.10;;
36799;SDS011;22752;51.960;5.886;2023-04-15T03:19:23;12.47;;;7.03;;
36799;SDS011;22752;51.960;5.886;2023-04-15T03:21:49;9.40;;;6.80;;
36799;SDS011;22752;51.960;5.886;2023-04-15T03:24:14;9.80;;;7.07;;
36799;SDS011;22752;51.960;5.886;2023-04-15T03:26:40;11.43;;;7.23;;
36799;SDS011;22752;51.960;5.886;2023-04-15T03:29:06;9.40;;;6.90;;
36799;SDS011;22752;51.960;5.886;2023-04-15T03:31:31;10.57;;;7.33;;
36799;SDS011;22752;51.960;5.886;2023-04-15T03:33:57;9.30;;;7.20;;
36799;SDS011;22752;51.960;5.886;2023-04-15T03:36:22;11.63;;;7.83;;
36799;SDS011;22752;51.960;5.886;2023-04-15T03:38:48;10.43;;;8.03;;
36799;SDS011;22752;51.960;5.886;2023-04-15T03:41:14;10.10;;;7.63;;
36799;SDS011;22752;51.960;5.886;2023-04-15T03:43:39;11.10;;;7.73;;
36799;SDS011;22752;51.960;5.886;2023-04-15T03:46:05;16.30;;;8.23;;
36799;SDS011;22752;51.960;5.886;2023-04-15T03:48:31;10.87;;;7.87;;
36799;SDS011;22752;51.960;5.886;2023-04-15T03:50:57;10.37;;;7.87;;
36799;SDS011;22752;51.960;5.886;2023-04-15T03:53:22;16.30;;;7.80;;
36799;SDS011;22752;51.960;5.886;2023-04-15T03:55:48;10.10;;;7.80;;
36799;SDS011;22752;51.960;5.886;2023-04-15T03:58:14;13.40;;;8.10;;
36799;SDS011;22752;51.960;5.886;2023-04-15T04:00:39;14.80;;;8.43;;
36799;SDS011;22752;51.960;5.886;2023-04-15T04:03:06;13.13;;;8.43;;
36799;SDS011;22752;51.960;5.886;2023-04-15T04:05:32;11.50;;;7.93;;
36799;SDS011;22752;51.960;5.886;2023-04-15T04:08:01;12.17;;;8.23;;
36799;SDS011;22752;51.960;5.886;2023-04-15T04:10:26;12.10;;;7.80;;
36799;SDS011;22752;51.960;5.886;2023-04-15T04:12:52;10.87;;;7.37;;
36799;SDS011;22752;51.960;5.886;2023-04-15T04:15:17;9.70;;;7.87;;
36799;SDS011;22752;51.960;5.886;2023-04-15T04:17:43;14.20;;;8.47;;
36799;SDS011;22752;51.960;5.886;2023-04-15T04:20:09;12.93;;;8.43;;
36799;SDS011;22752;51.960;5.886;2023-04-15T04:22:38;11.20;;;8.37;;
36799;SDS011;22752;51.960;5.886;2023-04-15T04:25:04;12.77;;;7.80;;
36799;SDS011;22752;51.960;5.886;2023-04-15T04:27:32;12.80;;;8.07;;
36799;SDS011;22752;51.960;5.886;2023-04-15T04:29:58;11.37;;;8.57;;
36799;SDS011;22752;51.960;5.886;2023-04-15T04:32:24;14.03;;;8.90;;
36799;SDS011;22752;51.960;5.886;2023-04-15T04:34:50;12.90;;;8.53;;
36799;SDS011;22752;51.960;5.886;2023-04-15T04:37:16;12.50;;;8.93;;
36799;SDS011;22752;51.960;5.886;2023-04-15T04:39:41;12.27;;;9.43;;
36799;SDS011;22752;51.960;5.886;2023-04-15T04:42:07;13.53;;;9.57;;
36799;SDS011;22752;51.960;5.886;2023-04-15T04:44:32;12.73;;;9.17;;
36799;SDS011;22752;51.960;5.886;2023-04-15T04:46:58;12.67;;;9.77;;
36799;SDS011;22752;51.960;5.886;2023-04-15T04:49:24;11.63;;;9.13;;
36799;SDS011;22752;51.960;5.886;2023-04-15T04:51:50;13.53;;;8.93;;
36799;SDS011;22752;51.960;5.886;2023-04-15T04:54:16;13.10;;;9.80;;
36799;SDS011;22752;51.960;5.886;2023-04-15T04:56:41;13.97;;;8.93;;
36799;SDS011;22752;51.960;5.886;2023-04-15T04:59:07;12.67;;;8.73;;
36799;SDS011;22752;51.960;5.886;2023-04-15T05:01:33;15.17;;;9.77;;
36799;SDS011;22752;51.960;5.886;2023-04-15T05:04:00;14.87;;;10.30;;
36799;SDS011;22752;51.960;5.886;2023-04-15T05:06:25;14.50;;;10.30;;
36799;SDS011;22752;51.960;5.886;2023-04-15T05:08:54;13.17;;;10.50;;
36799;SDS011;22752;51.960;5.886;2023-04-15T05:11:20;10.37;;;8.97;;
36799;SDS011;22752;51.960;5.886;2023-04-15T05:13:46;13.80;;;10.03;;
36799;SDS011;22752;51.960;5.886;2023-04-15T05:16:12;16.80;;;9.90;;
36799;SDS011;22752;51.960;5.886;2023-04-15T05:18:37;14.20;;;10.73;;
36799;SDS011;22752;51.960;5.886;2023-04-15T05:21:03;12.13;;;9.70;;
36799;SDS011;22752;51.960;5.886;2023-04-15T05:23:29;16.03;;;10.03;;
36799;SDS011;22752;51.960;5.886;2023-04-15T05:25:55;13.33;;;9.87;;
36799;SDS011;22752;51.960;5.886;2023-04-15T05:28:20;13.43;;;10.73;;
36799;SDS011;22752;51.960;5.886;2023-04-15T05:30:46;13.23;;;11.00;;
36799;SDS011;22752;51.960;5.886;2023-04-15T05:33:11;12.20;;;10.07;;
36799;SDS011;22752;51.960;5.886;2023-04-15T05:35:37;14.10;;;10.63;;
36799;SDS011;22752;51.960;5.886;2023-04-15T05:38:02;14.10;;;10.67;;
36799;SDS011;22752;51.960;5.886;2023-04-15T05:40:29;14.20;;;11.00;;
36799;SDS011;22752;51.960;5.886;2023-04-15T05:42:55;13.27;;;10.27;;
36799;SDS011;22752;51.960;5.886;2023-04-15T05:45:21;14.67;;;10.33;;
36799;SDS011;22752;51.960;5.886;2023-04-15T05:47:46;12.03;;;9.77;;
36799;SDS011;22752;51.960;5.886;2023-04-15T05:50:14;12.00;;;9.97;;
36799;SDS011;22752;51.960;5.886;2023-04-15T05:52:40;15.07;;;11.17;;
36799;SDS011;22752;51.960;5.886;2023-04-15T05:55:06;13.93;;;10.40;;
36799;SDS011;22752;51.960;5.886;2023-04-15T05:57:32;14.13;;;9.90;;
36799;SDS011;22752;51.960;5.886;2023-04-15T05:59:57;14.40;;;10.67;;
36799;SDS011;22752;51.960;5.886;2023-04-15T06:02:23;15.93;;;10.13;;
36799;SDS011;22752;51.960;5.886;2023-04-15T06:04:49;14.50;;;9.23;;
36799;SDS011;22752;51.960;5.886;2023-04-15T06:07:14;11.43;;;9.63;;
36799;SDS011;22752;51.960;5.886;2023-04-15T06:09:40;10.23;;;8.93;;
36799;SDS011;22752;51.960;5.886;2023-04-15T06:12:06;13.17;;;10.00;;
36799;SDS011;22752;51.960;5.886;2023-04-15T06:14:36;13.90;;;9.50;;
36799;SDS011;22752;51.960;5.886;2023-04-15T06:17:02;10.77;;;9.17;;
36799;SDS011;22752;51.960;5.886;2023-04-15T06:19:28;13.60;;;9.23;;
36799;SDS011;22752;51.960;5.886;2023-04-15T06:21:53;12.33;;;9.40;;
36799;SDS011;22752;51.960;5.886;2023-04-15T06:24:19;12.23;;;9.77;;
36799;SDS011;22752;51.960;5.886;2023-04-15T06:26:45;12.93;;;10.20;;
36799;SDS011;22752;51.960;5.886;2023-04-15T06:29:10;11.90;;;9.90;;
36799;SDS011;22752;51.960;5.886;2023-04-15T06:31:36;13.20;;;9.80;;
36799;SDS011;22752;51.960;5.886;2023-04-15T06:34:01;12.57;;;10.23;;
36799;SDS011;22752;51.960;5.886;2023-04-15T06:36:27;13.10;;;10.07;;
36799;SDS011;22752;51.960;5.886;2023-04-15T06:38:53;12.77;;;9.63;;
36799;SDS011;22752;51.960;5.886;2023-04-15T06:41:18;10.30;;;8.90;;
36799;SDS011;22752;51.960;5.886;2023-04-15T06:43:44;10.37;;;8.50;;
36799;SDS011;22752;51.960;5.886;2023-04-15T06:46:09;12.43;;;8.70;;
36799;SDS011;22752;51.960;5.886;2023-04-15T06:48:35;11.23;;;8.80;;
36799;SDS011;22752;51.960;5.886;2023-04-15T06:51:01;11.43;;;8.43;;
36799;SDS011;22752;51.960;5.886;2023-04-15T06:53:28;10.47;;;8.20;;
36799;SDS011;22752;51.960;5.886;2023-04-15T06:55:53;10.87;;;8.60;;
36799;SDS011;22752;51.960;5.886;2023-04-15T06:58:19;11.70;;;8.30;;
36799;SDS011;22752;51.960;5.886;2023-04-15T07:00:45;11.70;;;9.13;;
36799;SDS011;22752;51.960;5.886;2023-04-15T07:03:11;13.03;;;9.37;;
36799;SDS011;22752;51.960;5.886;2023-04-15T07:05:37;12.97;;;9.40;;
36799;SDS011;22752;51.960;5.886;2023-04-15T07:08:03;12.30;;;9.90;;
36799;SDS011;22752;51.960;5.886;2023-04-15T07:10:29;11.93;;;9.40;;
36799;SDS011;22752;51.960;5.886;2023-04-15T07:12:55;12.60;;;9.57;;
36799;SDS011;22752;51.960;5.886;2023-04-15T07:15:21;11.97;;;9.43;;
36799;SDS011;22752;51.960;5.886;2023-04-15T07:17:47;11.43;;;9.50;;
36799;SDS011;22752;51.960;5.886;2023-04-15T07:20:13;11.10;;;9.10;;
36799;SDS011;22752;51.960;5.886;2023-04-15T07:22:39;11.70;;;8.60;;
36799;SDS011;22752;51.960;5.886;2023-04-15T07:25:05;11.20;;;8.37;;
36799;SDS011;22752;51.960;5.886;2023-04-15T07:27:31;10.17;;;7.83;;
36799;SDS011;22752;51.960;5.886;2023-04-15T07:29:57;10.27;;;7.87;;
36799;SDS011;22752;51.960;5.886;2023-04-15T07:32:22;10.40;;;8.10;;
36799;SDS011;22752;51.960;5.886;2023-04-15T07:34:48;11.30;;;8.10;;
36799;SDS011;22752;51.960;5.886;2023-04-15T07:37:14;11.03;;;8.40;;
36799;SDS011;22752;51.960;5.886;2023-04-15T07:39:39;9.73;;;7.73;;
36799;SDS011;22752;51.960;5.886;2023-04-15T07:42:05;9.77;;;8.00;;
36799;SDS011;22752;51.960;5.886;2023-04-15T07:44:31;9.97;;;8.23;;
36799;SDS011;22752;51.960;5.886;2023-04-15T07:46:57;9.43;;;7.87;;
36799;SDS011;22752;51.960;5.886;2023-04-15T07:49:22;11.70;;;8.47;;
36799;SDS011;22752;51.960;5.886;2023-04-15T07:51:48;11.67;;;8.13;;
36799;SDS011;22752;51.960;5.886;2023-04-15T07:54:15;9.60;;;8.13;;
36799;SDS011;22752;51.960;5.886;2023-04-15T07:56:40;10.13;;;7.73;;
36799;SDS011;22752;51.960;5.886;2023-04-15T07:59:06;10.77;;;8.57;;
36799;SDS011;22752;51.960;5.886;2023-04-15T08:01:33;9.80;;;8.10;;
36799;SDS011;22752;51.960;5.886;2023-04-15T08:03:59;10.63;;;8.33;;
36799;SDS011;22752;51.960;5.886;2023-04-15T08:06:24;11.07;;;8.20;;
36799;SDS011;22752;51.960;5.886;2023-04-15T08:08:51;12.50;;;8.00;;
36799;SDS011;22752;51.960;5.886;2023-04-15T08:11:18;12.37;;;8.13;;
36799;SDS011;22752;51.960;5.886;2023-04-15T08:13:45;9.67;;;7.40;;
36799;SDS011;22752;51.960;5.886;2023-04-15T08:16:12;12.13;;;7.40;;
36799;SDS011;22752;51.960;5.886;2023-04-15T08:18:49;10.70;;;7.00;;
36799;SDS011;22752;51.960;5.886;2023-04-15T08:21:16;10.93;;;7.20;;
36799;SDS011;22752;51.960;5.886;2023-04-15T08:23:44;7.65;;;6.43;;
36799;SDS011;22752;51.960;5.886;2023-04-15T08:26:10;10.40;;;6.53;;
36799;SDS011;22752;51.960;5.886;2023-04-15T08:28:37;7.40;;;5.63;;
36799;SDS011;22752;51.960;5.886;2023-04-15T08:31:04;6.50;;;5.67;;
36799;SDS011;22752;51.960;5.886;2023-04-15T08:33:30;5.43;;;4.67;;
36799;SDS011;22752;51.960;5.886;2023-04-15T08:35:55;4.97;;;4.40;;
36799;SDS011;22752;51.960;5.886;2023-04-15T08:38:21;6.70;;;4.60;;
36799;SDS011;22752;51.960;5.886;2023-04-15T08:40:47;6.40;;;4.00;;
36799;SDS011;22752;51.960;5.886;2023-04-15T08:43:32;5.47;;;4.17;;
36799;SDS011;22752;51.960;5.886;2023-04-15T08:45:59;7.03;;;4.23;;
36799;SDS011;22752;51.960;5.886;2023-04-15T08:48:27;6.60;;;4.10;;
36799;SDS011;22752;51.960;5.886;2023-04-15T08:50:53;4.38;;;3.97;;
36799;SDS011;22752;51.960;5.886;2023-04-15T08:53:19;4.90;;;4.23;;
36799;SDS011;22752;51.960;5.886;2023-04-15T08:55:46;4.72;;;3.90;;
36799;SDS011;22752;51.960;5.886;2023-04-15T08:58:16;5.33;;;4.50;;
36799;SDS011;22752;51.960;5.886;2023-04-15T09:00:43;5.63;;;3.92;;
36799;SDS011;22752;51.960;5.886;2023-04-15T09:03:08;4.63;;;4.23;;
36799;SDS011;22752;51.960;5.886;2023-04-15T09:05:34;4.57;;;3.80;;
36799;SDS011;22752;51.960;5.886;2023-04-15T09:08:01;5.83;;;4.10;;
36799;SDS011;22752;51.960;5.886;2023-04-15T09:10:28;4.43;;;3.75;;
36799;SDS011;22752;51.960;5.886;2023-04-15T09:12:54;5.43;;;4.03;;
36799;SDS011;22752;51.960;5.886;2023-04-15T09:15:21;5.93;;;4.18;;
36799;SDS011;22752;51.960;5.886;2023-04-15T09:17:49;4.43;;;3.88;;
36799;SDS011;22752;51.960;5.886;2023-04-15T09:20:15;5.18;;;3.75;;
36799;SDS011;22752;51.960;5.886;2023-04-15T09:22:43;5.82;;;4.07;;
36799;SDS011;22752;51.960;5.886;2023-04-15T09:27:48;4.88;;;3.63;;
36799;SDS011;22752;51.960;5.886;2023-04-15T09:30:15;6.75;;;4.50;;
36799;SDS011;22752;51.960;5.886;2023-04-15T09:32:50;7.85;;;4.80;;
36799;SDS011;22752;51.960;5.886;2023-04-15T09:35:17;6.70;;;5.07;;
36799;SDS011;22752;51.960;5.886;2023-04-15T09:37:43;6.18;;;4.43;;
36799;SDS011;22752;51.960;5.886;2023-04-15T09:40:09;6.35;;;4.50;;
36799;SDS011;22752;51.960;5.886;2023-04-15T09:42:35;5.97;;;4.43;;
36799;SDS011;22752;51.960;5.886;2023-04-15T09:45:09;4.90;;;4.28;;
36799;SDS011;22752;51.960;5.886;2023-04-15T09:47:36;5.45;;;4.78;;
36799;SDS011;22752;51.960;5.886;2023-04-15T09:50:02;6.75;;;4.63;;
36799;SDS011;22752;51.960;5.886;2023-04-15T09:52:28;5.45;;;3.97;;
36799;SDS011;22752;51.960;5.886;2023-04-15T09:54:56;5.47;;;4.00;;
36799;SDS011;22752;51.960;5.886;2023-04-15T09:57:23;5.13;;;4.28;;
36799;SDS011;22752;51.960;5.886;2023-04-15T09:59:49;6.18;;;4.38;;
36799;SDS011;22752;51.960;5.886;2023-04-15T10:02:15;6.07;;;3.55;;
36799;SDS011;22752;51.960;5.886;2023-04-15T10:04:42;4.95;;;4.05;;
36799;SDS011;22752;51.960;5.886;2023-04-15T10:07:09;5.43;;;3.40;;
36799;SDS011;22752;51.960;5.886;2023-04-15T10:09:37;4.47;;;3.85;;
36799;SDS011;22752;51.960;5.886;2023-04-15T10:12:03;5.05;;;3.90;;
36799;SDS011;22752;51.960;5.886;2023-04-15T10:14:36;4.97;;;3.65;;
36799;SDS011;22752;51.960;5.886;2023-04-15T10:17:04;6.43;;;4.22;;
36799;SDS011;22752;51.960;5.886;2023-04-15T10:19:30;4.65;;;3.80;;
36799;SDS011;22752;51.960;5.886;2023-04-15T10:21:58;6.05;;;3.30;;
36799;SDS011;22752;51.960;5.886;2023-04-15T10:24:24;4.10;;;3.20;;
36799;SDS011;22752;51.960;5.886;2023-04-15T10:26:50;6.63;;;3.78;;
36799;SDS011;22752;51.960;5.886;2023-04-15T10:29:16;6.13;;;3.50;;
36799;SDS011;22752;51.960;5.886;2023-04-15T10:31:42;4.78;;;3.40;;
36799;SDS011;22752;51.960;5.886;2023-04-15T10:34:08;4.55;;;3.05;;
36799;SDS011;22752;51.960;5.886;2023-04-15T10:36:35;4.10;;;3.35;;
36799;SDS011;22752;51.960;5.886;2023-04-15T10:39:01;4.70;;;3.85;;
36799;SDS011;22752;51.960;5.886;2023-04-15T10:41:33;3.60;;;3.30;;
36799;SDS011;22752;51.960;5.886;2023-04-15T10:44:01;5.53;;;3.35;;
36799;SDS011;22752;51.960;5.886;2023-04-15T10:49:07;6.25;;;3.42;;
36799;SDS011;22752;51.960;5.886;2023-04-15T10:51:36;4.78;;;3.58;;
36799;SDS011;22752;51.960;5.886;2023-04-15T10:54:06;4.53;;;3.25;;
36799;SDS011;22752;51.960;5.886;2023-04-15T10:56:37;4.57;;;3.00;;
36799;SDS011;22752;51.960;5.886;2023-04-15T10:59:05;3.63;;;3.17;;
36799;SDS011;22752;51.960;5.886;2023-04-15T11:01:50;5.82;;;3.00;;
36799;SDS011;22752;51.960;5.886;2023-04-15T11:12:43;5.82;;;2.92;;
36799;SDS011;22752;51.960;5.886;2023-04-15T11:15:26;4.25;;;3.20;;
36799;SDS011;22752;51.960;5.886;2023-04-15T11:17:55;5.95;;;3.88;;
36799;SDS011;22752;51.960;5.886;2023-04-15T11:20:22;4.00;;;2.80;;
36799;SDS011;22752;51.960;5.886;2023-04-15T11:22:54;3.67;;;2.80;;
36799;SDS011;22752;51.960;5.886;2023-04-15T11:25:23;5.85;;;2.58;;
36799;SDS011;22752;51.960;5.886;2023-04-15T11:27:51;4.35;;;2.38;;
36799;SDS011;22752;51.960;5.886;2023-04-15T11:30:19;2.45;;;2.20;;
36799;SDS011;22752;51.960;5.886;2023-04-15T11:32:47;3.08;;;2.25;;
36799;SDS011;22752;51.960;5.886;2023-04-15T11:35:15;3.05;;;2.25;;
36799;SDS011;22752;51.960;5.886;2023-04-15T11:37:42;3.20;;;2.33;;
36799;SDS011;22752;51.960;5.886;2023-04-15T11:40:08;2.35;;;1.80;;
36799;SDS011;22752;51.960;5.886;2023-04-15T11:42:34;2.85;;;1.92;;
36799;SDS011;22752;51.960;5.886;2023-04-15T11:47:40;2.90;;;1.75;;
36799;SDS011;22752;51.960;5.886;2023-04-15T11:55:27;5.47;;;2.10;;
36799;SDS011;22752;51.960;5.886;2023-04-15T12:00:38;2.17;;;1.70;;
36799;SDS011;22752;51.960;5.886;2023-04-15T12:08:52;1.65;;;1.45;;
36799;SDS011;22752;51.960;5.886;2023-04-15T12:14:39;1.98;;;1.30;;
36799;SDS011;22752;51.960;5.886;2023-04-15T12:16:47;2.88;;;1.30;;
36799;SDS011;22752;51.960;5.886;2023-04-15T12:19:16;4.22;;;1.35;;
36799;SDS011;22752;51.960;5.886;2023-04-15T12:21:45;3.58;;;1.38;;
36799;SDS011;22752;51.960;5.886;2023-04-15T12:24:12;1.95;;;1.20;;
36799;SDS011;22752;51.960;5.886;2023-04-15T12:26:50;3.10;;;1.40;;
36799;SDS011;22752;51.960;5.886;2023-04-15T12:29:18;1.25;;;1.15;;
36799;SDS011;22752;51.960;5.886;2023-04-15T12:34:27;2.03;;;1.20;;
36799;SDS011;22752;51.960;5.886;2023-04-15T12:36:55;1.98;;;1.30;;
36799;SDS011;22752;51.960;5.886;2023-04-15T12:39:22;2.67;;;1.75;;
36799;SDS011;22752;51.960;5.886;2023-04-15T12:41:49;3.20;;;1.90;;
36799;SDS011;22752;51.960;5.886;2023-04-15T12:44:15;2.40;;;1.50;;
36799;SDS011;22752;51.960;5.886;2023-04-15T12:46:41;7.30;;;2.53;;
36799;SDS011;22752;51.960;5.886;2023-04-15T12:49:07;7.57;;;3.67;;
36799;SDS011;22752;51.960;5.886;2023-04-15T12:51:33;3.30;;;1.80;;
36799;SDS011;22752;51.960;5.886;2023-04-15T12:53:58;4.35;;;2.20;;
36799;SDS011;22752;51.960;5.886;2023-04-15T12:56:24;3.08;;;2.17;;
36799;SDS011;22752;51.960;5.886;2023-04-15T12:58:50;2.83;;;1.98;;
36799;SDS011;22752;51.960;5.886;2023-04-15T13:01:16;4.32;;;2.20;;
36799;SDS011;22752;51.960;5.886;2023-04-15T13:03:42;4.50;;;1.80;;
36799;SDS011;22752;51.960;5.886;2023-04-15T13:06:08;2.10;;;1.60;;
36799;SDS011;22752;51.960;5.886;2023-04-15T13:08:34;3.13;;;1.58;;
36799;SDS011;22752;51.960;5.886;2023-04-15T13:11:00;4.85;;;1.80;;
36799;SDS011;22752;51.960;5.886;2023-04-15T13:13:26;2.13;;;1.42;;
36799;SDS011;22752;51.960;5.886;2023-04-15T13:15:52;3.78;;;2.30;;
36799;SDS011;22752;51.960;5.886;2023-04-15T13:18:17;3.05;;;1.80;;
36799;SDS011;22752;51.960;5.886;2023-04-15T13:20:43;2.50;;;1.40;;
36799;SDS011;22752;51.960;5.886;2023-04-15T13:23:09;2.88;;;1.10;;
36799;SDS011;22752;51.960;5.886;2023-04-15T13:25:35;1.65;;;1.10;;
36799;SDS011;22752;51.960;5.886;2023-04-15T13:28:01;2.00;;;1.00;;
36799;SDS011;22752;51.960;5.886;2023-04-15T13:30:27;3.53;;;1.23;;
36799;SDS011;22752;51.960;5.886;2023-04-15T13:32:52;1.77;;;1.00;;
36799;SDS011;22752;51.960;5.886;2023-04-15T13:35:18;3.47;;;1.00;;
36799;SDS011;22752;51.960;5.886;2023-04-15T13:37:45;2.33;;;1.10;;
36799;SDS011;22752;51.960;5.886;2023-04-15T13:40:11;2.42;;;1.13;;
36799;SDS011;22752;51.960;5.886;2023-04-15T13:42:37;1.63;;;0.80;;
36799;SDS011;22752;51.960;5.886;2023-04-15T13:45:02;3.20;;;1.00;;
36799;SDS011;22752;51.960;5.886;2023-04-15T13:47:28;3.63;;;1.15;;
36799;SDS011;22752;51.960;5.886;2023-04-15T13:49:54;1.65;;;0.80;;
36799;SDS011;22752;51.960;5.886;2023-04-15T13:52:21;2.78;;;1.00;;
36799;SDS011;22752;51.960;5.886;2023-04-15T13:54:47;1.95;;;0.95;;
36799;SDS011;22752;51.960;5.886;2023-04-15T13:57:13;3.42;;;1.20;;
36799;SDS011;22752;51.960;5.886;2023-04-15T13:59:38;5.63;;;1.17;;
36799;SDS011;22752;51.960;5.886;2023-04-15T14:02:05;2.20;;;0.90;;
36799;SDS011;22752;51.960;5.886;2023-04-15T14:04:31;1.70;;;0.93;;
36799;SDS011;22752;51.960;5.886;2023-04-15T14:06:57;2.10;;;1.08;;
36799;SDS011;22752;51.960;5.886;2023-04-15T14:09:22;2.72;;;0.90;;
36799;SDS011;22752;51.960;5.886;2023-04-15T14:11:49;1.50;;;0.95;;
36799;SDS011;22752;51.960;5.886;2023-04-15T14:14:15;3.33;;;0.82;;
36799;SDS011;22752;51.960;5.886;2023-04-15T14:16:41;3.70;;;1.20;;
36799;SDS011;22752;51.960;5.886;2023-04-15T14:19:06;1.73;;;1.02;;
36799;SDS011;22752;51.960;5.886;2023-04-15T14:21:32;2.00;;;1.05;;
36799;SDS011;22752;51.960;5.886;2023-04-15T14:23:58;1.70;;;0.88;;
36799;SDS011;22752;51.960;5.886;2023-04-15T14:26:24;1.77;;;0.90;;
36799;SDS011;22752;51.960;5.886;2023-04-15T14:28:50;2.08;;;1.00;;
36799;SDS011;22752;51.960;5.886;2023-04-15T14:31:15;1.27;;;1.00;;
36799;SDS011;22752;51.960;5.886;2023-04-15T14:33:43;2.78;;;1.27;;
36799;SDS011;22752;51.960;5.886;2023-04-15T14:36:10;4.05;;;1.67;;
36799;SDS011;22752;51.960;5.886;2023-04-15T14:38:36;2.00;;;1.02;;
36799;SDS011;22752;51.960;5.886;2023-04-15T14:41:05;4.68;;;1.10;;
36799;SDS011;22752;51.960;5.886;2023-04-15T14:43:32;3.30;;;1.50;;
36799;SDS011;22752;51.960;5.886;2023-04-15T14:45:58;2.65;;;1.02;;
36799;SDS011;22752;51.960;5.886;2023-04-15T14:48:23;3.25;;;0.90;;
36799;SDS011;22752;51.960;5.886;2023-04-15T14:50:49;2.78;;;1.67;;
36799;SDS011;22752;51.960;5.886;2023-04-15T14:53:16;7.45;;;3.20;;
36799;SDS011;22752;51.960;5.886;2023-04-15T14:55:41;2.35;;;1.50;;
36799;SDS011;22752;51.960;5.886;2023-04-15T14:58:07;3.78;;;1.80;;
36799;SDS011;22752;51.960;5.886;2023-04-15T15:00:33;4.32;;;1.40;;
36799;SDS011;22752;51.960;5.886;2023-04-15T15:03:00;6.22;;;1.70;;
36799;SDS011;22752;51.960;5.886;2023-04-15T15:05:25;3.33;;;2.00;;
36799;SDS011;22752;51.960;5.886;2023-04-15T15:07:51;4.05;;;2.42;;
36799;SDS011;22752;51.960;5.886;2023-04-15T15:10:17;4.45;;;2.05;;
36799;SDS011;22752;51.960;5.886;2023-04-15T15:12:43;3.45;;;1.45;;